Time;durP1;ratioP1;P1;durP2;ratioP2;P2;SDS_P1;SDS_P2;PMS_P1;PMS_P2;Temp;Humidity;BMP_temperature;BMP_pressure;BME280_temperature;BME280_humidity;BME280_pressure;Samples;Min_cycle;Max_cycle;Signal;HPM_P1;HPM_P2
2022/02/10 00:06:05;;;;;;;;;;;;;;;;;;2070261;28;20329;-63
2022/02/10 00:14:28;;;;;;;;;;;;;;;;;;2047525;29;19953;-47
2022/02/10 00:15:54;;;;;;;;;;;;;;;;;;2047067;28;20103;-48
2022/02/10 00:17:10;;;;;;;;;;;;;;;;;;2073098;28;19928;-49
2022/02/10 00:18:27;;;;;;;;;;;;;;;;;;2071849;28;19943;-46
2022/02/10 00:20:56;;;;;;;;;;;;;;;;;;2062507;28;19928;-46
2022/02/10 00:22:02;;;;;;;;;;;;;;;;;;2073049;28;19928;-59
2022/02/10 00:23:25;;;;;;;;;;;;;;;;;;2072489;28;19987;-58
2022/02/10 00:24:45;;;;;;;;;;;;;;;;;;2072739;28;19921;-59
2022/02/10 00:34:18;;;;;;;;;;;;;;;;;;2072675;28;19926;-63
2022/02/10 00:35:23;;;;;;;;;;;;;;;;;;2071705;28;20302;-62
2022/02/10 00:36:28;;;;;;;;;;;;;;;;;;2072960;28;20228;-62
2022/02/10 00:37:37;;;;;;;;;;;;;;;;;;2070779;28;19928;-62
2022/02/10 00:38:43;;;;;;;;;;;;;;;;;;2072660;28;19922;-62
2022/02/10 00:41:10;;;;;;;;;;;;;;;;;;2061422;28;19964;-62
2022/02/10 00:42:10;;;;;;;;;;;;;;;;;;2073026;28;19929;-48
2022/02/10 00:43:13;;;;;;;;;;;;;;;;;;2071978;28;20367;-50
2022/02/10 00:44:13;;;;;;;;;;;;;;;;;;2072751;28;19926;-61
2022/02/10 00:45:15;;;;;;;;;;;;;;;;;;2072834;28;19926;-61
2022/02/10 00:46:16;;;;;;;;;;;;;;;;;;2070405;28;20325;-61
2022/02/10 00:47:17;;;;;;;;;;;;;;;;;;2072514;28;19925;-61
2022/02/10 00:48:18;;;;;;;;;;;;;;;;;;2072682;28;19928;-61
2022/02/10 00:49:19;;;;;;;;;;;;;;;;;;2070545;28;19928;-47
2022/02/10 00:50:20;;;;;;;;;;;;;;;;;;2072680;28;20024;-47
2022/02/10 00:51:21;;;;;;;;;;;;;;;;;;2072451;28;19921;-48
2022/02/10 00:52:22;;;;;;;;;;;;;;;;;;2072698;28;19976;-49
2022/02/10 00:53:26;;;;;;;;;;;;;;;;;;2074420;28;19979;-60
2022/02/10 00:54:28;;;;;;;;;;;;;;;;;;2073303;28;19968;-57
2022/02/10 00:55:31;;;;;;;;;;;;;;;;;;2073783;28;20326;-59
2022/02/10 00:56:32;;;;;;;;;;;;;;;;;;2074088;28;19972;-58
2022/02/10 00:57:33;;;;;;;;;;;;;;;;;;2071892;28;19921;-58
2022/02/10 00:58:35;;;;;;;;;;;;;;;;;;2073865;28;19925;-58
2022/02/10 00:59:50;;;;;;;;;;;;;;;;;;2073950;28;19921;-58
2022/02/10 01:02:30;;;;;;;;;;;;;;;;;;2074063;28;19921;-58
2022/02/10 01:10:28;;;;;;;;;;;;;;;;;;2071800;28;20374;-59
2022/02/10 01:13:07;;;;;;;;;;;;;;;;;;2064882;28;19928;-59
2022/02/10 01:14:31;;;;;;;;;;;;;;;;;;2063219;28;19930;-58
2022/02/10 01:30:08;;;;;;;;;;;;;;;;;;2065895;28;19922;-60
2022/02/10 01:31:10;;;;;;;;;;;;;;;;;;2065644;28;19922;-59
2022/02/10 01:32:11;;;;;;;;;;;;;;;;;;2072786;28;19975;-58
2022/02/10 01:33:12;;;;;;;;;;;;;;;;;;2074032;28;20311;-59
2022/02/10 01:34:14;;;;;;;;;;;;;;;;;;2073091;28;20000;-59
2022/02/10 01:35:19;;;;;;;;;;;;;;;;;;2073412;28;20052;-59
2022/02/10 01:36:20;;;;;;;;;;;;;;;;;;2073787;28;19928;-48
2022/02/10 01:37:21;;;;;;;;;;;;;;;;;;2071613;28;19921;-48
2022/02/10 01:38:22;;;;;;;;;;;;;;;;;;2073765;28;19932;-46
2022/02/10 01:39:30;;;;;;;;;;;;;;;;;;2074079;28;19922;-48
2022/02/10 01:40:54;;;;;;;;;;;;;;;;;;2072212;28;19921;-58
2022/02/10 01:57:48;;;;;;;;;;;;;;;;;;2073347;28;19921;-61
2022/02/10 02:04:10;;;;;;;;;;;;;;;;;;2064522;28;19922;-48
2022/02/10 02:05:19;;;;;;;;;;;;;;;;;;2065092;28;19922;-47
2022/02/10 02:06:23;;;;;;;;;;;;;;;;;;2073289;28;19928;-47
2022/02/10 02:07:29;;;;;;;;;;;;;;;;;;2073960;28;19972;-60
2022/02/10 02:08:32;;;;;;;;;;;;;;;;;;2072766;28;19928;-61
2022/02/10 02:09:33;;;;;;;;;;;;;;;;;;2073577;28;20015;-58
2022/02/10 02:10:34;;;;;;;;;;;;;;;;;;2073667;28;19921;-58
2022/02/10 02:11:39;;;;;;;;;;;;;;;;;;2071505;28;19921;-47
2022/02/10 02:12:40;;;;;;;;;;;;;;;;;;2073855;28;19922;-47
2022/02/10 02:13:41;;;;;;;;;;;;;;;;;;2071760;28;19921;-47
2022/02/10 02:14:42;;;;;;;;;;;;;;;;;;2073736;28;20426;-61
2022/02/10 02:15:42;;;;;;;;;;;;;;;;;;2073514;28;19921;-58
2022/02/10 02:16:44;;;;;;;;;;;;;;;;;;2074430;28;19933;-47
2022/02/10 02:17:44;;;;;;;;;;;;;;;;;;2073399;28;19921;-48
2022/02/10 02:18:45;;;;;;;;;;;;;;;;;;2073852;28;20359;-47
2022/02/10 02:19:47;;;;;;;;;;;;;;;;;;2072872;28;19925;-47
2022/02/10 02:20:48;;;;;;;;;;;;;;;;;;2073237;28;19984;-48
2022/02/10 02:21:49;;;;;;;;;;;;;;;;;;2073580;28;19922;-47
2022/02/10 02:22:50;;;;;;;;;;;;;;;;;;2072398;28;19921;-49
2022/02/10 02:23:51;;;;;;;;;;;;;;;;;;2073609;28;19922;-47
2022/02/10 02:24:52;;;;;;;;;;;;;;;;;;2073052;28;19921;-47
2022/02/10 02:25:58;;;;;;;;;;;;;;;;;;2072964;28;19930;-47
2022/02/10 02:27:02;;;;;;;;;;;;;;;;;;2073964;28;19987;-58
2022/02/10 02:28:04;;;;;;;;;;;;;;;;;;2071398;28;19929;-57
2022/02/10 02:29:08;;;;;;;;;;;;;;;;;;2073302;28;19921;-47
2022/02/10 02:30:13;;;;;;;;;;;;;;;;;;2073667;28;19921;-46
2022/02/10 02:31:18;;;;;;;;;;;;;;;;;;2072709;28;20274;-47
2022/02/10 02:32:23;;;;;;;;;;;;;;;;;;2073530;28;19928;-47
2022/02/10 02:36:39;;;;;;;;;;;;;;;;;;2073783;28;19956;-49
2022/02/10 02:38:03;;;;;;;;;;;;;;;;;;2072328;28;19928;-48
2022/02/10 03:05:53;;;;;;;;;;;;;;;;;;2055557;28;19933;-47
2022/02/10 03:06:58;;;;;;;;;;;;;;;;;;2069568;28;20004;-48
2022/02/10 03:08:01;;;;;;;;;;;;;;;;;;2071433;28;20027;-48
2022/02/10 03:09:06;;;;;;;;;;;;;;;;;;2073581;28;20371;-61
2022/02/10 03:10:23;;;;;;;;;;;;;;;;;;2073283;28;19952;-61
2022/02/10 03:11:24;;;;;;;;;;;;;;;;;;2072633;28;19972;-48
2022/02/10 03:12:25;;;;;;;;;;;;;;;;;;2073714;28;20000;-47
2022/02/10 03:13:31;;;;;;;;;;;;;;;;;;2071265;28;20257;-49
2022/02/10 03:14:36;;;;;;;;;;;;;;;;;;2072911;28;20354;-47
2022/02/10 03:15:46;;;;;;;;;;;;;;;;;;2072860;28;20004;-46
2022/02/10 03:18:18;;;;;;;;;;;;;;;;;;2069618;28;20412;-47
2022/02/10 03:19:33;;;;;;;;;;;;;;;;;;2072418;28;20029;-56
2022/02/10 03:20:47;;;;;;;;;;;;;;;;;;2073613;28;20432;-57
2022/02/10 03:22:23;;;;;;;;;;;;;;;;;;2071222;28;20390;-57
2022/02/10 04:01:21;;;;;;;;;;;;;;;;;;2055570;28;19969;-48
2022/02/10 04:02:50;;;;;;;;;;;;;;;;;;2071718;28;20329;-48
2022/02/10 04:05:45;;;;;;;;;;;;;;;;;;2062471;28;20064;-60
2022/02/10 04:08:06;;;;;;;;;;;;;;;;;;2071821;28;19969;-60
2022/02/10 04:09:32;;;;;;;;;;;;;;;;;;2072959;28;20422;-58
2022/02/10 04:13:14;;;;;;;;;;;;;;;;;;2068659;28;20009;-60
2022/02/10 04:14:22;;;;;;;;;;;;;;;;;;2073070;28;19977;-57
2022/02/10 04:15:31;;;;;;;;;;;;;;;;;;2073588;28;20398;-59
2022/02/10 04:16:36;;;;;;;;;;;;;;;;;;2072476;28;20062;-58
2022/02/10 04:17:55;;;;;;;;;;;;;;;;;;2073456;28;19971;-57
2022/02/10 04:20:38;;;;;;;;;;;;;;;;;;2071411;28;20047;-48
2022/02/10 04:21:50;;;;;;;;;;;;;;;;;;2070469;28;20103;-49
2022/02/10 04:23:03;;;;;;;;;;;;;;;;;;2073324;28;19921;-62
2022/02/10 04:24:21;;;;;;;;;;;;;;;;;;2072468;28;20020;-61
2022/02/10 04:25:39;;;;;;;;;;;;;;;;;;2065040;28;19981;-50
2022/02/10 04:26:50;;;;;;;;;;;;;;;;;;2066257;28;20023;-61
2022/02/10 04:28:11;;;;;;;;;;;;;;;;;;2073768;28;19953;-62
2022/02/10 04:30:53;;;;;;;;;;;;;;;;;;2073985;28;19972;-48
2022/02/10 04:32:30;;;;;;;;;;;;;;;;;;2074701;28;19964;-57
2022/02/10 04:38:16;;;;;;;;;;;;;;;;;;2074200;28;20458;-58
2022/02/10 04:43:57;;;;;;;;;;;;;;;;;;2074167;28;20012;-57
2022/02/10 04:54:06;;;;;;;;;;;;;;;;;;2048914;29;20001;-55
2022/02/10 04:58:10;;;;;;;;;;;;;;;;;;2042142;28;19965;-56
2022/02/10 04:59:27;;;;;;;;;;;;;;;;;;2067293;28;20011;-55
2022/02/10 05:00:43;;;;;;;;;;;;;;;;;;2074124;28;20023;-47
2022/02/10 05:02:00;;;;;;;;;;;;;;;;;;2073060;28;19921;-47
2022/02/10 05:04:46;;;;;;;;;;;;;;;;;;2072887;28;19921;-48
2022/02/10 05:16:56;;;;;;;;;;;;;;;;;;2066796;28;19997;-49
2022/02/10 05:18:11;;;;;;;;;;;;;;;;;;2071840;28;19971;-48
2022/02/10 05:19:26;;;;;;;;;;;;;;;;;;2074044;28;20501;-49
2022/02/10 05:20:49;;;;;;;;;;;;;;;;;;2072389;28;19979;-56
2022/02/10 05:23:23;;;;;;;;;;;;;;;;;;2073468;28;20060;-57
2022/02/10 05:24:40;;;;;;;;;;;;;;;;;;2072841;28;20393;-57
2022/02/10 05:33:01;;;;;;;;;;;;;;;;;;2047904;28;20010;-57
2022/02/10 05:34:03;;;;;;;;;;;;;;;;;;2048685;29;20008;-48
2022/02/10 05:35:16;;;;;;;;;;;;;;;;;;2046508;28;20455;-48
2022/02/10 05:36:21;;;;;;;;;;;;;;;;;;2048818;28;20407;-59
2022/02/10 05:37:25;;;;;;;;;;;;;;;;;;2048312;29;20296;-57
2022/02/10 05:38:31;;;;;;;;;;;;;;;;;;2059319;28;20440;-57
2022/02/10 05:39:35;;;;;;;;;;;;;;;;;;2074423;28;20000;-51
2022/02/10 05:42:18;;;;;;;;;;;;;;;;;;2065637;28;19922;-58
2022/02/10 05:43:38;;;;;;;;;;;;;;;;;;2067003;28;19969;-57
2022/02/10 05:44:55;;;;;;;;;;;;;;;;;;2074002;28;20008;-58
2022/02/10 05:46:07;;;;;;;;;;;;;;;;;;2074586;28;20020;-50
2022/02/10 05:47:38;;;;;;;;;;;;;;;;;;2073824;28;19944;-58
2022/02/10 05:51:50;;;;;;;;;;;;;;;;;;2073696;28;19921;-58
2022/02/10 05:54:28;;;;;;;;;;;;;;;;;;2074131;28;20187;-57
2022/02/10 05:55:45;;;;;;;;;;;;;;;;;;2073178;28;20339;-47
2022/02/10 05:56:58;;;;;;;;;;;;;;;;;;2073704;28;20007;-57
2022/02/10 05:58:04;;;;;;;;;;;;;;;;;;2071315;28;20577;-55
2022/02/10 05:59:42;;;;;;;;;;;;;;;;;;2073982;28;19952;-56
2022/02/10 06:50:01;;;;;;;;;;;;;;;;;;2073319;28;20004;-55
2022/02/10 06:52:38;;;;;;;;;;;;;;;;;;2056246;28;19925;-46
2022/02/10 06:53:49;;;;;;;;;;;;;;;;;;2062045;28;19944;-52
2022/02/10 06:55:00;;;;;;;;;;;;;;;;;;2072936;28;19921;-53
2022/02/10 06:56:38;;;;;;;;;;;;;;;;;;2073628;28;20012;-48
2022/02/10 06:58:12;;;;;;;;;;;;;;;;;;2072971;28;20249;-47
2022/02/10 07:03:38;;;;;;;;;;;;;;;;;;2073002;28;20008;-54
2022/02/10 07:05:15;;;;;;;;;;;;;;;;;;2073727;28;20007;-55
2022/02/10 07:06:23;;;;;;;;;;;;;;;;;;2072829;28;20004;-55
2022/02/10 07:10:20;;;;;;;;;;;;;;;;;;2073510;28;20307;-47
2022/02/10 07:13:07;;;;;;;;;;;;;;;;;;2070095;28;20056;-50
2022/02/10 07:17:18;;;;;;;;;;;;;;;;;;2070288;28;19929;-55
2022/02/10 07:49:07;;;;;;;;;;;;;;;;;;2064143;28;20012;-45
2022/02/10 07:50:47;;;;;;;;;;;;;;;;;;2072478;28;19957;-45
2022/02/10 07:53:29;;;;;;;;;;;;;;;;;;2072049;28;20413;-45
2022/02/10 07:54:38;;;;;;;;;;;;;;;;;;2065131;28;20009;-53
2022/02/10 07:56:09;;;;;;;;;;;;;;;;;;2064547;28;20012;-45
2022/02/10 07:57:17;;;;;;;;;;;;;;;;;;2072451;28;20354;-52
2022/02/10 07:58:38;;;;;;;;;;;;;;;;;;2072979;28;19964;-52
2022/02/10 08:27:50;;;;;;;;;;;;;;;;;;2073926;28;19921;-57
2022/02/10 08:50:10;;;;;;;;;;;;;;;;;;2071922;28;20012;-57
2022/02/10 08:55:47;;;;;;;;;;;;;;;;;;2068616;28;20382;-56
2022/02/10 08:56:55;;;;;;;;;;;;;;;;;;2073669;28;19960;-56
2022/02/10 08:58:26;;;;;;;;;;;;;;;;;;2073819;28;19968;-55
2022/02/10 09:00:02;;;;;;;;;;;;;;;;;;2074256;28;19921;-46
2022/02/10 09:01:37;;;;;;;;;;;;;;;;;;2073009;28;19972;-47
2022/02/10 09:04:10;;;;;;;;;;;;;;;;;;2048284;28;19997;-46
2022/02/10 09:05:22;;;;;;;;;;;;;;;;;;2072713;28;19964;-46
2022/02/10 09:06:35;;;;;;;;;;;;;;;;;;2074256;28;20379;-46
2022/02/10 09:09:32;;;;;;;;;;;;;;;;;;2056925;28;20016;-51
2022/02/10 09:12:24;;;;;;;;;;;;;;;;;;2073813;28;20019;-54
2022/02/10 09:16:33;;;;;;;;;;;;;;;;;;4303277;27;19915;-44
2022/02/10 09:22:18;;;;;;;;;;;;;;;;;;2120180;27;19967;-43
2022/02/10 09:55:11;;;;;;;;;;;;;;;;;;2147567;27;19922;-49
2022/02/10 09:56:23;;;;;;;;;;;;;;;;;;2146723;27;19962;-53
2022/02/10 09:57:53;;;;;;;;;;;;;;;;;;2146952;27;20202;-49
2022/02/10 10:00:26;;;;;;;;;;;;;;;;;;2130240;27;20018;-44
2022/02/10 10:01:31;;;;;;;;;;;;;;;;;;2144167;27;19926;-43
2022/02/10 10:02:36;;;;;;;;;;;;;;;;;;2147429;27;20010;-45
2022/02/10 10:03:42;;;;;;;;;;;;;;;;;;2145674;27;19932;-44
2022/02/10 10:04:48;;;;;;;;;;;;;;;;;;2146880;27;19929;-44
2022/02/10 10:05:50;;;;;;;;;;;;;;;;;;2147399;27;19988;-49
2022/02/10 10:07:03;;;;;;;;;;;;;;;;;;2144957;27;19983;-53
2022/02/10 10:08:20;;;;;;;;;;;;;;;;;;2147333;27;20014;-50
2022/02/10 10:09:31;;;;;;;;;;;;;;;;;;2144991;27;20415;-53
2022/02/10 10:10:52;;;;;;;;;;;;;;;;;;2147105;27;19995;-50
2022/02/10 10:12:29;;;;;;;;;;;;;;;;;;2146313;27;20434;-44
2022/02/10 10:13:36;;;;;;;;;;;;;;;;;;2138694;27;20045;-46
2022/02/10 10:14:43;;;;;;;;;;;;;;;;;;2139648;27;19923;-44
2022/02/10 10:15:49;;;;;;;;;;;;;;;;;;2145868;27;20025;-45
2022/02/10 10:16:59;;;;;;;;;;;;;;;;;;2147044;27;20413;-44
2022/02/10 10:19:29;;;;;;;;;;;;;;;;;;2137587;27;20014;-45
2022/02/10 10:20:42;;;;;;;;;;;;;;;;;;2141384;27;20001;-43
2022/02/10 10:21:48;;;;;;;;;;;;;;;;;;2146768;27;20431;-43
2022/02/10 10:23:14;;;;;;;;;;;;;;;;;;2147185;27;19969;-44
2022/02/10 10:45:01;;;;;;;;;;;;;;;;;;2132449;27;19923;-50
2022/02/10 10:50:11;;;;;;;;;;;;;;;;;;2132559;27;20359;-45
2022/02/10 10:51:23;;;;;;;;;;;;;;;;;;2133861;27;20383;-52
2022/02/10 10:52:39;;;;;;;;;;;;;;;;;;2139968;27;19970;-52
2022/02/10 10:53:48;;;;;;;;;;;;;;;;;;2141460;27;19958;-49
2022/02/10 10:54:57;;;;;;;;;;;;;;;;;;2137856;27;19923;-49
2022/02/10 10:56:04;;;;;;;;;;;;;;;;;;2141021;27;20013;-52
2022/02/10 10:57:12;;;;;;;;;;;;;;;;;;2138922;27;20010;-49
2022/02/10 10:58:17;;;;;;;;;;;;;;;;;;2140063;27;20010;-52
2022/02/10 10:59:38;;;;;;;;;;;;;;;;;;2141410;27;20013;-49
2022/02/10 11:03:50;;;;;;;;;;;;;;;;;;2138522;27;20000;-43
2022/02/10 11:36:33;;;;;;;;;;;;;;;;;;2140628;27;20132;-44
2022/02/10 11:37:38;;;;;;;;;;;;;;;;;;2138060;27;20439;-45
2022/02/10 11:38:44;;;;;;;;;;;;;;;;;;2140641;27;20022;-46
2022/02/10 11:39:52;;;;;;;;;;;;;;;;;;2139582;27;20014;-52
2022/02/10 11:40:54;;;;;;;;;;;;;;;;;;2132056;27;20009;-53
2022/02/10 11:42:06;;;;;;;;;;;;;;;;;;2132205;27;20009;-51
2022/02/10 11:43:12;;;;;;;;;;;;;;;;;;2138686;27;20427;-53
2022/02/10 11:47:28;;;;;;;;;;;;;;;;;;2132083;27;19931;-45
2022/02/10 12:29:21;;;;;;;;;;;;;;;;;;2132385;27;19934;-45
2022/02/10 12:36:41;;;;;;;;;;;;;;;;;;2132596;27;19958;-45
2022/02/10 12:39:22;;;;;;;;;;;;;;;;;;2134199;27;20575;-45
2022/02/10 12:43:34;;;;;;;;;;;;;;;;;;2138718;27;19923;-51
2022/02/10 13:24:25;;;;;;;;;;;;;;;;;;2140119;27;20371;-53
2022/02/10 13:27:27;;;;;;;;;;;;;;;;;;2140150;27;19929;-44
2022/02/10 14:09:13;;;;;;;;;;;;;;;;;;2141549;27;20018;-51
2022/02/10 14:10:39;;;;;;;;;;;;;;;;;;2139052;27;19962;-50
2022/02/10 14:13:15;;;;;;;;;;;;;;;;;;2113311;28;19927;-50
2022/02/10 14:14:21;;;;;;;;;;;;;;;;;;2114498;28;20023;-50
2022/02/10 14:16:49;;;;;;;;;;;;;;;;;;2128926;27;19927;-53
2022/02/10 14:18:04;;;;;;;;;;;;;;;;;;2132653;27;20379;-50
2022/02/10 14:19:15;;;;;;;;;;;;;;;;;;2139572;27;20416;-45
2022/02/10 14:20:35;;;;;;;;;;;;;;;;;;2141429;27;19973;-45
2022/02/10 14:21:46;;;;;;;;;;;;;;;;;;2138997;27;20141;-45
2022/02/10 14:22:53;;;;;;;;;;;;;;;;;;2141822;27;19965;-44
2022/02/10 14:26:48;;;;;;;;;;;;;;;;;;2135172;27;19975;-45
2022/02/10 14:27:49;;;;;;;;;;;;;;;;;;2141731;27;20425;-44
2022/02/10 14:28:50;;;;;;;;;;;;;;;;;;2141299;27;19961;-45
2022/02/10 14:29:51;;;;;;;;;;;;;;;;;;2139540;27;19922;-52
2022/02/10 14:30:56;;;;;;;;;;;;;;;;;;2141293;27;20367;-51
2022/02/10 14:31:57;;;;;;;;;;;;;;;;;;2141201;27;19923;-50
2022/02/10 14:32:59;;;;;;;;;;;;;;;;;;2138882;27;19927;-53
2022/02/10 14:34:00;;;;;;;;;;;;;;;;;;2141243;27;20559;-50
2022/02/10 14:35:10;;;;;;;;;;;;;;;;;;2140822;27;20005;-49
2022/02/10 14:36:17;;;;;;;;;;;;;;;;;;2139312;27;19922;-52
2022/02/10 14:37:34;;;;;;;;;;;;;;;;;;2141351;27;20109;-50
2022/02/10 14:38:50;;;;;;;;;;;;;;;;;;2139407;27;20017;-52
2022/02/10 14:40:07;;;;;;;;;;;;;;;;;;2141337;27;20406;-50
2022/02/10 14:41:44;;;;;;;;;;;;;;;;;;2138820;27;20006;-52
2022/02/10 14:43:10;;;;;;;;;;;;;;;;;;2141252;27;19927;-50
2022/02/10 15:17:12;;;;;;;;;;;;;;;;;;2141083;27;19929;-52
2022/02/10 15:30:21;;;;;;;;;;;;;;;;;;2111954;28;20022;-45
2022/02/10 15:45:58;;;;;;;;;;;;;;;;;;2141191;27;19966;-45
2022/02/10 15:50:14;;;;;;;;;;;;;;;;;;2139716;27;19973;-53
2022/02/10 15:54:21;;;;;;;;;;;;;;;;;;2115577;27;20553;-50
2022/02/10 16:10:48;;;;;;;;;;;;;;;;;;2140772;27;20010;-49
2022/02/10 16:12:33;;;;;;;;;;;;;;;;;;2108453;28;20408;-50
2022/02/10 16:17:19;;;;;;;;;;;;;;;;;;2133691;27;23555;-44
2022/02/10 16:18:23;;;;;;;;;;;;;;;;;;2139282;27;20009;-44
2022/02/10 16:19:25;;;;;;;;;;;;;;;;;;2140744;27;19966;-53
2022/02/10 16:20:29;;;;;;;;;;;;;;;;;;2138384;27;19978;-45
2022/02/10 16:21:36;;;;;;;;;;;;;;;;;;2140442;27;19984;-44
2022/02/10 16:22:39;;;;;;;;;;;;;;;;;;2140036;27;19923;-45
2022/02/10 16:23:40;;;;;;;;;;;;;;;;;;2137639;27;19951;-44
2022/02/10 16:24:49;;;;;;;;;;;;;;;;;;2140374;27;20350;-44
2022/02/10 16:25:59;;;;;;;;;;;;;;;;;;2138436;27;19930;-44
2022/02/10 16:27:12;;;;;;;;;;;;;;;;;;2140278;27;20042;-45
2022/02/10 16:28:24;;;;;;;;;;;;;;;;;;2140212;27;19962;-44
2022/02/10 16:29:25;;;;;;;;;;;;;;;;;;2138512;27;19997;-44
2022/02/10 16:30:26;;;;;;;;;;;;;;;;;;2140474;27;19922;-43
2022/02/10 16:31:31;;;;;;;;;;;;;;;;;;2138286;27;20005;-44
2022/02/10 16:32:39;;;;;;;;;;;;;;;;;;2139825;27;19958;-45
2022/02/10 16:33:46;;;;;;;;;;;;;;;;;;2140464;27;20009;-44
2022/02/10 16:34:52;;;;;;;;;;;;;;;;;;2138660;27;20010;-44
2022/02/10 16:36:02;;;;;;;;;;;;;;;;;;2140409;27;20028;-44
2022/02/10 16:37:09;;;;;;;;;;;;;;;;;;2139893;27;20021;-44
2022/02/10 16:38:15;;;;;;;;;;;;;;;;;;2140436;27;19962;-44
2022/02/10 16:39:21;;;;;;;;;;;;;;;;;;2139060;27;20266;-50
2022/02/10 16:40:27;;;;;;;;;;;;;;;;;;2139665;27;19972;-49
2022/02/10 16:41:33;;;;;;;;;;;;;;;;;;2140426;27;19977;-49
2022/02/10 16:42:39;;;;;;;;;;;;;;;;;;2138326;27;19966;-44
2022/02/10 16:43:45;;;;;;;;;;;;;;;;;;2140492;27;19923;-44
2022/02/10 16:44:51;;;;;;;;;;;;;;;;;;2139579;27;20422;-44
2022/02/10 16:45:57;;;;;;;;;;;;;;;;;;2139277;27;19973;-44
2022/02/10 16:47:03;;;;;;;;;;;;;;;;;;2140383;27;19976;-44
2022/02/10 16:48:09;;;;;;;;;;;;;;;;;;2138298;27;19974;-44
2022/02/10 16:49:17;;;;;;;;;;;;;;;;;;2131722;27;19924;-44
2022/02/10 16:50:22;;;;;;;;;;;;;;;;;;2132082;27;20367;-44
2022/02/10 16:51:28;;;;;;;;;;;;;;;;;;2137691;27;20013;-45
2022/02/10 16:52:38;;;;;;;;;;;;;;;;;;2140604;27;20287;-49
2022/02/10 16:53:50;;;;;;;;;;;;;;;;;;2138698;27;19969;-51
2022/02/10 16:55:07;;;;;;;;;;;;;;;;;;2131879;27;20014;-44
2022/02/10 16:56:19;;;;;;;;;;;;;;;;;;2133151;27;19998;-43
2022/02/10 16:57:36;;;;;;;;;;;;;;;;;;2138038;27;20423;-44
2022/02/10 16:58:48;;;;;;;;;;;;;;;;;;2140527;27;19923;-51
2022/02/10 17:00:07;;;;;;;;;;;;;;;;;;2138337;27;19923;-48
2022/02/10 17:03:12;;;;;;;;;;;;;;;;;;2135811;27;19923;-44
2022/02/10 17:04:43;;;;;;;;;;;;;;;;;;2140008;27;19980;-49
2022/02/10 17:06:03;;;;;;;;;;;;;;;;;;2138007;27;19948;-52
2022/02/10 17:14:52;;;;;;;;;;;;;;;;;;2105603;28;20330;-43
2022/02/10 17:17:40;;;;;;;;;;;;;;;;;;2105194;28;19971;-44
2022/02/10 17:20:13;;;;;;;;;;;;;;;;;;2120957;27;20379;-50
2022/02/10 17:21:28;;;;;;;;;;;;;;;;;;2131496;27;20339;-50
2022/02/10 17:25:15;;;;;;;;;;;;;;;;;;2135703;27;19969;-50
2022/02/10 17:26:33;;;;;;;;;;;;;;;;;;2131781;27;19927;-52
2022/02/10 17:27:39;;;;;;;;;;;;;;;;;;2135618;27;19928;-52
2022/02/10 17:28:55;;;;;;;;;;;;;;;;;;2140327;27;19926;-51
2022/02/10 17:30:44;;;;;;;;;;;;;;;;;;2139221;27;19993;-50
2022/02/10 17:31:53;;;;;;;;;;;;;;;;;;2130685;27;19923;-44
2022/02/10 17:33:05;;;;;;;;;;;;;;;;;;2133003;27;19930;-44
2022/02/10 17:34:37;;;;;;;;;;;;;;;;;;2139941;27;19966;-44
2022/02/10 17:37:13;;;;;;;;;;;;;;;;;;2116551;27;20355;-43
2022/02/10 17:42:34;;;;;;;;;;;;;;;;;;2140131;27;19994;-50
2022/02/10 17:44:05;;;;;;;;;;;;;;;;;;2141576;27;19926;-49
2022/02/10 17:45:36;;;;;;;;;;;;;;;;;;2139365;27;19923;-45
2022/02/10 17:46:51;;;;;;;;;;;;;;;;;;2141775;27;19973;-44
2022/02/10 17:51:58;;;;;;;;;;;;;;;;;;2141451;27;20399;-44
2022/02/10 17:53:02;;;;;;;;;;;;;;;;;;2139280;27;20077;-44
2022/02/10 17:54:03;;;;;;;;;;;;;;;;;;2142173;27;19922;-50
2022/02/10 17:55:05;;;;;;;;;;;;;;;;;;2141072;27;19923;-50
2022/02/10 17:56:07;;;;;;;;;;;;;;;;;;2139045;27;20073;-49
2022/02/10 17:57:08;;;;;;;;;;;;;;;;;;2141758;27;20032;-44
2022/02/10 17:58:09;;;;;;;;;;;;;;;;;;2140601;27;20362;-44
2022/02/10 17:59:10;;;;;;;;;;;;;;;;;;2140193;27;19933;-49
2022/02/10 18:00:11;;;;;;;;;;;;;;;;;;2141439;27;20435;-51
2022/02/10 18:01:12;;;;;;;;;;;;;;;;;;2139058;27;19931;-51
2022/02/10 18:02:14;;;;;;;;;;;;;;;;;;2138340;27;19929;-49
2022/02/10 18:03:15;;;;;;;;;;;;;;;;;;2132839;27;19955;-48
2022/02/10 18:04:16;;;;;;;;;;;;;;;;;;2138094;27;20299;-43
2022/02/10 18:05:45;;;;;;;;;;;;;;;;;;2141584;27;20292;-44
2022/02/10 18:06:46;;;;;;;;;;;;;;;;;;2139235;27;20021;-43
2022/02/10 18:07:50;;;;;;;;;;;;;;;;;;2141092;27;20378;-44
2022/02/10 18:09:10;;;;;;;;;;;;;;;;;;2141559;27;19973;-44
2022/02/10 18:10:40;;;;;;;;;;;;;;;;;;2139083;27;20052;-43
2022/02/10 18:13:21;;;;;;;;;;;;;;;;;;2136519;27;19923;-44
2022/02/10 18:14:26;;;;;;;;;;;;;;;;;;2133061;27;19966;-49
2022/02/10 18:15:37;;;;;;;;;;;;;;;;;;2137262;27;20288;-48
2022/02/10 18:16:44;;;;;;;;;;;;;;;;;;2142161;27;19930;-51
2022/02/10 18:17:51;;;;;;;;;;;;;;;;;;2140740;27;19923;-48
2022/02/10 18:18:55;;;;;;;;;;;;;;;;;;2139848;27;19966;-48
2022/02/10 18:20:00;;;;;;;;;;;;;;;;;;2141423;27;20021;-49
2022/02/10 18:21:11;;;;;;;;;;;;;;;;;;2139736;27;20383;-49
2022/02/10 18:23:47;;;;;;;;;;;;;;;;;;2128859;27;19972;-50
2022/02/10 18:25:20;;;;;;;;;;;;;;;;;;2141116;27;19923;-51
2022/02/10 18:26:31;;;;;;;;;;;;;;;;;;2141156;27;19979;-50
2022/02/10 18:27:38;;;;;;;;;;;;;;;;;;2141117;27;19923;-53
2022/02/10 18:28:53;;;;;;;;;;;;;;;;;;2141230;27;20010;-56
2022/02/10 18:54:25;;;;;;;;;;;;;;;;;;2138984;27;19923;-45
2022/02/10 19:01:29;;;;;;;;;;;;;;;;;;2134283;27;20010;-57
2022/02/10 19:07:53;;;;;;;;;;;;;;;;;;2114340;28;20014;-46
2022/02/10 19:09:08;;;;;;;;;;;;;;;;;;2135895;27;20460;-46
2022/02/10 19:10:09;;;;;;;;;;;;;;;;;;2141145;27;19954;-46
2022/02/10 19:11:13;;;;;;;;;;;;;;;;;;2140438;27;19923;-46
2022/02/10 19:12:17;;;;;;;;;;;;;;;;;;2139814;27;19923;-48
2022/02/10 19:13:19;;;;;;;;;;;;;;;;;;2141010;27;19926;-48
2022/02/10 19:14:20;;;;;;;;;;;;;;;;;;2138470;27;19966;-45
2022/02/10 19:15:23;;;;;;;;;;;;;;;;;;2140966;27;19979;-58
2022/02/10 19:16:25;;;;;;;;;;;;;;;;;;2140898;27;20271;-58
2022/02/10 19:17:26;;;;;;;;;;;;;;;;;;2138617;27;19999;-58
2022/02/10 19:18:27;;;;;;;;;;;;;;;;;;2132469;27;19923;-58
2022/02/10 19:19:28;;;;;;;;;;;;;;;;;;2133050;27;20437;-49
2022/02/10 19:20:28;;;;;;;;;;;;;;;;;;2138993;27;19927;-47
2022/02/10 19:21:31;;;;;;;;;;;;;;;;;;2140855;27;19930;-46
2022/02/10 19:22:32;;;;;;;;;;;;;;;;;;2140260;27;19972;-57
2022/02/10 19:23:33;;;;;;;;;;;;;;;;;;2139563;27;19930;-58
2022/02/10 19:24:34;;;;;;;;;;;;;;;;;;2140952;27;20419;-58
2022/02/10 19:25:36;;;;;;;;;;;;;;;;;;2140080;27;19923;-57
2022/02/10 19:26:38;;;;;;;;;;;;;;;;;;2139705;27;19946;-57
2022/02/10 19:27:40;;;;;;;;;;;;;;;;;;2141371;27;20044;-49
2022/02/10 19:28:41;;;;;;;;;;;;;;;;;;2136086;27;20385;-47
2022/02/10 19:29:42;;;;;;;;;;;;;;;;;;2132197;27;19923;-46
2022/02/10 19:30:44;;;;;;;;;;;;;;;;;;2134074;27;19923;-57
2022/02/10 19:31:46;;;;;;;;;;;;;;;;;;2138273;27;20005;-57
2022/02/10 19:32:51;;;;;;;;;;;;;;;;;;2140942;27;20006;-57
2022/02/10 19:33:53;;;;;;;;;;;;;;;;;;2139082;27;20387;-57
2022/02/10 19:34:56;;;;;;;;;;;;;;;;;;2140666;27;19971;-57
2022/02/10 19:35:57;;;;;;;;;;;;;;;;;;2140928;27;20013;-47
2022/02/10 19:36:58;;;;;;;;;;;;;;;;;;2139860;27;20027;-57
2022/02/10 19:38:00;;;;;;;;;;;;;;;;;;2140936;27;20009;-58
2022/02/10 19:39:02;;;;;;;;;;;;;;;;;;2140536;27;19929;-46
2022/02/10 19:40:03;;;;;;;;;;;;;;;;;;2139744;27;19926;-46
2022/02/10 19:41:06;;;;;;;;;;;;;;;;;;2140899;27;19922;-47
2022/02/10 19:42:29;;;;;;;;;;;;;;;;;;2138900;27;19930;-57
2022/02/10 19:43:30;;;;;;;;;;;;;;;;;;2132155;27;19995;-58
2022/02/10 19:44:33;;;;;;;;;;;;;;;;;;2132066;27;20085;-57
2022/02/10 19:45:33;;;;;;;;;;;;;;;;;;2138158;27;19927;-57
2022/02/10 19:46:34;;;;;;;;;;;;;;;;;;2140775;27;20363;-57
2022/02/10 19:47:35;;;;;;;;;;;;;;;;;;2140377;27;19967;-56
2022/02/10 19:48:36;;;;;;;;;;;;;;;;;;2138875;27;19922;-57
2022/02/10 19:49:40;;;;;;;;;;;;;;;;;;2140972;27;20014;-55
2022/02/10 19:50:41;;;;;;;;;;;;;;;;;;2139379;27;19923;-57
2022/02/10 19:51:42;;;;;;;;;;;;;;;;;;2140211;27;19995;-57
2022/02/10 19:52:46;;;;;;;;;;;;;;;;;;2140680;27;19923;-55
2022/02/10 19:53:48;;;;;;;;;;;;;;;;;;2139593;27;19923;-57
2022/02/10 19:54:51;;;;;;;;;;;;;;;;;;2137172;27;19930;-56
2022/02/10 19:55:53;;;;;;;;;;;;;;;;;;2132237;27;19943;-56
2022/02/10 19:56:54;;;;;;;;;;;;;;;;;;2136936;27;20002;-55
2022/02/10 19:57:58;;;;;;;;;;;;;;;;;;2141547;27;20363;-56
2022/02/10 19:58:59;;;;;;;;;;;;;;;;;;2138781;27;20017;-56
2022/02/10 20:00:00;;;;;;;;;;;;;;;;;;2138421;27;19962;-56
2022/02/10 20:01:02;;;;;;;;;;;;;;;;;;2138695;27;19930;-45
2022/02/10 20:02:05;;;;;;;;;;;;;;;;;;2133568;27;19922;-45
2022/02/10 20:03:12;;;;;;;;;;;;;;;;;;2140489;27;19965;-46
2022/02/10 20:04:13;;;;;;;;;;;;;;;;;;2140702;27;19923;-46
2022/02/10 20:05:14;;;;;;;;;;;;;;;;;;2138412;27;19979;-46
2022/02/10 20:06:15;;;;;;;;;;;;;;;;;;2141071;27;20291;-46
2022/02/10 20:07:16;;;;;;;;;;;;;;;;;;2140821;27;19927;-46
2022/02/10 20:08:17;;;;;;;;;;;;;;;;;;2139599;27;20006;-46
2022/02/10 20:09:18;;;;;;;;;;;;;;;;;;2140927;27;19934;-56
2022/02/10 20:10:19;;;;;;;;;;;;;;;;;;2140035;27;19923;-55
2022/02/10 20:11:20;;;;;;;;;;;;;;;;;;2139517;27;20022;-46